createdAt,value
2018-06-09T00:01:24.767Z,44.59
2018-06-09T00:03:57.700Z,43.72
2018-06-09T00:06:38.232Z,43.68
2018-06-09T00:09:10.248Z,44.63
2018-06-09T00:11:43.762Z,44.65
2018-06-09T00:14:14.991Z,43.72
2018-06-09T00:16:46.890Z,43.77
2018-06-09T00:19:19.229Z,44.09
2018-06-09T00:22:02.589Z,44.89
2018-06-09T00:24:33.463Z,44.39
2018-06-09T00:27:06.419Z,43.66
2018-06-09T00:29:42.590Z,44.46
2018-06-09T00:32:14.113Z,44.11
2018-06-09T00:34:46.149Z,44.19
2018-06-09T00:37:18.297Z,43.74
2018-06-09T00:39:49.092Z,44.05
2018-06-09T00:42:21.125Z,44.06
2018-06-09T00:44:52.256Z,44.42
2018-06-09T00:47:24.635Z,43.45
2018-06-09T00:49:58.240Z,44.23
2018-06-09T00:52:31.527Z,43.34
2018-06-09T00:55:06.183Z,43.50
2018-06-09T00:57:38.377Z,43.56
2018-06-09T01:00:10.629Z,43.45
2018-06-09T01:02:42.516Z,44.07
2018-06-09T01:05:15.181Z,42.67
2018-06-09T01:07:45.911Z,43.55
2018-06-09T01:10:16.853Z,43.56
2018-06-09T01:12:48.060Z,43.01
2018-06-09T01:15:21.925Z,43.54
2018-06-09T01:17:56.610Z,43.90
2018-06-09T01:20:28.248Z,43.63
2018-06-09T01:22:59.367Z,43.20
2018-06-09T01:25:30.135Z,42.95
2018-06-09T01:28:11.818Z,42.57
2018-06-09T01:30:46.497Z,42.94
2018-06-09T01:33:18.444Z,43.38
2018-06-09T01:35:51.975Z,42.68
2018-06-09T01:38:23.971Z,43.84
2018-06-09T01:40:57.964Z,43.21
2018-06-09T01:43:30.007Z,43.72
2018-06-09T01:46:01.590Z,44.33
2018-06-09T01:48:37.087Z,44.74
2018-06-09T01:51:09.992Z,44.07
2018-06-09T01:53:41.727Z,44.69
2018-06-09T01:56:14.938Z,44.56
2018-06-09T01:58:50.291Z,43.44
2018-06-09T02:01:24.307Z,44.16
2018-06-09T02:03:56.952Z,44.50
2018-06-09T02:06:29.925Z,45.12
2018-06-09T02:09:00.999Z,44.68
2018-06-09T02:11:32.676Z,45.02
2018-06-09T02:14:05.313Z,45.34
2018-06-09T02:16:37.421Z,44.63
2018-06-09T02:19:09.241Z,44.90
2018-06-09T02:21:41.935Z,44.88
2018-06-09T02:24:13.929Z,45.29
2018-06-09T02:26:46.297Z,45.69
2018-06-09T02:29:18.560Z,45.20
2018-06-09T02:31:50.620Z,44.96
2018-06-09T02:34:22.233Z,45.29
2018-06-09T02:36:53.928Z,45.50
2018-06-09T02:39:24.845Z,45.34
2018-06-09T02:41:56.765Z,46.00
2018-06-09T02:44:28.643Z,46.39
2018-06-09T02:47:00.232Z,46.31
2018-06-09T02:49:32.361Z,46.56
2018-06-09T02:52:04.430Z,45.89
2018-06-09T02:54:36.226Z,45.97
2018-06-09T02:57:06.968Z,45.22
2018-06-09T02:59:40.746Z,45.33
2018-06-09T03:02:14.874Z,45.33
2018-06-09T03:04:45.797Z,45.72
2018-06-09T03:07:17.977Z,45.29
2018-06-09T03:09:51.377Z,46.00
2018-06-09T03:12:24.626Z,44.98
2018-06-09T03:14:57.079Z,45.33
2018-06-09T03:17:29.669Z,45.30
2018-06-09T03:20:01.720Z,45.05
2018-06-09T03:22:37.646Z,45.69
2018-06-09T03:25:13.348Z,45.30
2018-06-09T03:27:46.031Z,45.45
2018-06-09T03:30:18.048Z,45.39
2018-06-09T03:32:53.195Z,44.83
2018-06-09T03:35:24.037Z,44.89
2018-06-09T03:37:55.035Z,45.15
2018-06-09T03:40:27.125Z,45.99
2018-06-09T03:42:59.329Z,45.55
2018-06-09T03:45:34.813Z,45.25
2018-06-09T03:48:07.321Z,45.38
2018-06-09T03:50:47.359Z,44.90
2018-06-09T03:53:23.255Z,45.74
2018-06-09T03:55:56.059Z,46.14
2018-06-09T03:58:28.862Z,46.03
2018-06-09T04:01:03.704Z,44.88
2018-06-09T04:03:43.874Z,45.05
2018-06-09T04:06:16.581Z,44.79
2018-06-09T04:08:48.089Z,44.90
2018-06-09T04:11:19.129Z,45.63
2018-06-09T04:13:50.805Z,44.99
2018-06-09T04:16:22.797Z,44.64
2018-06-09T04:18:56.662Z,42.73
2018-06-09T04:21:28.991Z,41.98
2018-06-09T04:24:02.059Z,41.43
2018-06-09T04:26:34.033Z,39.35
2018-06-09T04:29:06.496Z,38.25
2018-06-09T04:31:38.224Z,37.13
2018-06-09T04:34:11.259Z,37.13
2018-06-09T04:36:43.521Z,36.27
2018-06-09T04:39:15.282Z,36.21
2018-06-09T04:41:47.094Z,35.90
2018-06-09T04:44:18.917Z,34.75
2018-06-09T04:46:52.177Z,34.36
2018-06-09T04:49:23.414Z,35.35
2018-06-09T04:51:57.100Z,35.60
2018-06-09T04:54:28.678Z,36.22
2018-06-09T04:56:59.652Z,37.08
2018-06-09T04:59:31.842Z,37.87
2018-06-09T05:02:05.335Z,38.35
2018-06-09T05:04:39.575Z,37.10
2018-06-09T05:07:11.144Z,35.50
2018-06-09T05:09:41.852Z,34.46
2018-06-09T05:12:13.472Z,33.71
2018-06-09T05:14:47.019Z,33.42
2018-06-09T05:17:19.098Z,33.69
2018-06-09T05:19:52.908Z,33.07
2018-06-09T05:22:26.277Z,32.68
2018-06-09T05:24:57.341Z,31.82
2018-06-09T05:27:28.254Z,30.79
2018-06-09T05:29:58.977Z,30.98
2018-06-09T05:32:30.926Z,31.38
2018-06-09T05:35:09.387Z,30.64
2018-06-09T05:37:41.360Z,29.77
2018-06-09T05:40:14.693Z,30.39
2018-06-09T05:42:47.169Z,32.17
2018-06-09T05:45:18.238Z,33.47
2018-06-09T05:47:48.984Z,34.31
2018-06-09T05:50:21.904Z,35.39
2018-06-09T05:52:53.578Z,35.08
2018-06-09T05:55:26.649Z,35.62
2018-06-09T05:57:58.054Z,35.74
2018-06-09T06:00:30.870Z,35.85
2018-06-09T06:03:03.212Z,35.99
2018-06-09T06:05:41.547Z,36.20
2018-06-09T06:08:16.246Z,36.13
2018-06-09T06:10:50.581Z,35.50
2018-06-09T06:13:23.100Z,34.70
2018-06-09T06:15:54.946Z,34.43
2018-06-09T06:18:27.582Z,34.78
2018-06-09T06:21:01.359Z,33.28
2018-06-09T06:23:38.472Z,32.84
2018-06-09T06:26:15.719Z,32.59
2018-06-09T06:28:49.572Z,31.89
2018-06-09T06:31:23.375Z,32.07
2018-06-09T06:33:54.405Z,31.77
2018-06-09T06:36:26.152Z,33.08
2018-06-09T06:38:57.201Z,33.30
2018-06-09T06:41:30.132Z,33.71
2018-06-09T06:44:01.151Z,33.73
2018-06-09T06:46:33.251Z,33.27
2018-06-09T06:49:09.120Z,32.02
2018-06-09T06:51:42.761Z,30.42
2018-06-09T06:54:15.282Z,29.57
2018-06-09T06:56:46.464Z,28.79
2018-06-09T06:59:18.858Z,29.91
2018-06-09T07:01:57.650Z,30.45
2018-06-09T07:04:30.331Z,30.60
2018-06-09T07:07:03.009Z,29.21
2018-06-09T07:09:34.309Z,28.47
2018-06-09T07:12:10.603Z,28.67
2018-06-09T07:14:42.314Z,27.36
2018-06-09T07:17:15.724Z,26.76
2018-06-09T07:19:49.508Z,26.26
2018-06-09T07:22:29.673Z,25.19
2018-06-09T07:25:01.067Z,25.36
2018-06-09T07:27:32.798Z,26.11
2018-06-09T07:30:06.322Z,25.85
2018-06-09T07:32:38.996Z,24.44
2018-06-09T07:35:11.941Z,24.35
2018-06-09T07:37:46.358Z,24.65
2018-06-09T07:40:18.857Z,25.50
2018-06-09T07:42:50.262Z,24.91
2018-06-09T07:45:22.476Z,24.58
2018-06-09T07:47:57.111Z,24.63
2018-06-09T07:50:34.506Z,23.73
2018-06-09T07:53:05.450Z,24.33
2018-06-09T07:55:36.428Z,23.46
2018-06-09T07:58:09.277Z,24.33
2018-06-09T08:00:41.880Z,24.04
2018-06-09T08:03:13.818Z,25.20
2018-06-09T08:05:49.966Z,25.84
2018-06-09T08:08:24.920Z,25.49
2018-06-09T08:10:56.948Z,24.70
2018-06-09T08:13:29.943Z,25.38
2018-06-09T08:16:03.659Z,24.57
2018-06-09T08:18:39.137Z,25.28
2018-06-09T08:21:11.462Z,25.94
2018-06-09T08:23:45.109Z,25.73
2018-06-09T08:26:19.329Z,25.81
2018-06-09T08:28:51.623Z,25.69
2018-06-09T08:31:23.443Z,25.14
2018-06-09T08:33:54.046Z,25.57
2018-06-09T08:36:25.739Z,25.07
2018-06-09T08:38:59.657Z,24.73
2018-06-09T08:41:34.422Z,25.31
2018-06-09T08:44:10.291Z,24.96
2018-06-09T08:46:43.846Z,24.88
2018-06-09T08:49:22.709Z,25.23
2018-06-09T08:51:54.806Z,25.04
2018-06-09T08:54:26.217Z,24.41
2018-06-09T08:56:57.874Z,24.46
2018-06-09T08:59:32.814Z,24.68
2018-06-09T09:02:08.090Z,25.37
2018-06-09T09:04:41.820Z,24.83
2018-06-09T09:07:16.083Z,25.14
2018-06-09T09:09:48.869Z,24.59
2018-06-09T09:12:23.617Z,24.18
2018-06-09T09:14:58.847Z,23.81
2018-06-09T09:17:33.049Z,24.38
2018-06-09T09:20:07.276Z,24.98
2018-06-09T09:22:41.283Z,24.48
2018-06-09T09:25:15.716Z,24.31
2018-06-09T09:27:46.689Z,24.00
2018-06-09T09:30:19.291Z,23.44
2018-06-09T09:32:51.020Z,24.20
2018-06-09T09:37:47.164Z,24.29
2018-06-09T09:40:18.723Z,23.71
2018-06-09T09:42:49.478Z,23.71
2018-06-09T09:45:24.234Z,24.27
2018-06-09T09:47:57.478Z,24.22
2018-06-09T09:50:29.292Z,24.01
2018-06-09T09:53:00.713Z,23.72
2018-06-09T09:55:31.386Z,23.87
2018-06-09T09:58:03.840Z,23.11
2018-06-09T10:00:41.472Z,22.86
2018-06-09T10:03:15.263Z,22.85
2018-06-09T10:05:50.402Z,22.20
2018-06-09T10:08:26.810Z,22.05
2018-06-09T10:10:59.792Z,21.97
2018-06-09T10:13:35.556Z,22.11
2018-06-09T10:16:06.322Z,21.54
2018-06-09T10:18:39.097Z,21.99
2018-06-09T10:21:10.541Z,21.95
2018-06-09T10:23:41.325Z,21.82
2018-06-09T10:26:12.060Z,21.32
2018-06-09T10:28:43.860Z,21.12
2018-06-09T10:31:14.629Z,20.95
2018-06-09T10:33:53.652Z,20.15
2018-06-09T10:36:24.692Z,20.54
2018-06-09T10:38:59.626Z,20.71
2018-06-09T10:41:31.580Z,19.82
2018-06-09T10:44:03.404Z,20.33
2018-06-09T10:46:38.236Z,20.51
2018-06-09T10:49:08.983Z,20.42
2018-06-09T10:51:40.276Z,20.21
2018-06-09T10:54:13.554Z,19.80
2018-06-09T10:56:46.612Z,20.19
2018-06-09T10:59:17.860Z,19.84
2018-06-09T11:01:52.177Z,19.16
2018-06-09T11:04:24.207Z,19.04
2018-06-09T11:06:56.340Z,19.44
2018-06-09T11:09:28.064Z,19.82
2018-06-09T11:11:59.802Z,19.90
2018-06-09T11:14:31.376Z,20.29
2018-06-09T11:17:02.020Z,20.88
2018-06-09T11:19:34.028Z,20.06
2018-06-09T11:22:09.700Z,19.91
2018-06-09T11:24:41.665Z,20.12
2018-06-09T11:27:13.557Z,19.93
2018-06-09T11:29:44.192Z,19.66
2018-06-09T11:32:16.864Z,20.21
2018-06-09T11:34:47.504Z,19.82
2018-06-09T11:37:18.201Z,19.91
2018-06-09T11:39:50.075Z,20.43
2018-06-09T11:42:28.912Z,20.34
2018-06-09T11:44:59.858Z,20.86
2018-06-09T11:47:31.504Z,20.57
2018-06-09T11:50:06.551Z,20.53
2018-06-09T11:52:40.599Z,20.53
2018-06-09T11:55:11.478Z,20.70
2018-06-09T11:57:44.234Z,20.17
2018-06-09T12:00:19.870Z,19.91
2018-06-09T12:02:51.836Z,19.03
2018-06-09T12:05:24.637Z,17.62
2018-06-09T12:07:58.654Z,18.61
2018-06-09T12:10:30.272Z,18.13
2018-06-09T12:13:05.108Z,17.62
2018-06-09T12:15:38.492Z,18.02
2018-06-09T12:18:13.205Z,18.09
2018-06-09T12:20:45.493Z,17.90
2018-06-09T12:23:17.969Z,17.21
2018-06-09T12:25:53.602Z,17.20
2018-06-09T12:28:27.424Z,17.27
2018-06-09T12:30:58.987Z,17.55
2018-06-09T12:33:32.447Z,17.65
2018-06-09T12:36:04.790Z,18.57
2018-06-09T12:38:38.385Z,17.13
2018-06-09T12:41:10.623Z,18.71
2018-06-09T12:43:45.236Z,18.43
2018-06-09T12:46:15.988Z,17.60
2018-06-09T12:48:47.513Z,18.57
2018-06-09T12:51:18.796Z,18.97
2018-06-09T12:53:50.265Z,17.69
2018-06-09T12:56:24.649Z,17.10
2018-06-09T12:58:57.460Z,17.79
2018-06-09T13:01:32.490Z,16.79
2018-06-09T13:04:03.151Z,17.29
2018-06-09T13:06:35.337Z,17.06
2018-06-09T13:09:08.971Z,18.12
2018-06-09T13:11:40.310Z,17.49
2018-06-09T13:14:13.915Z,18.28
2018-06-09T13:16:44.672Z,18.51
2018-06-09T13:19:15.371Z,18.59
2018-06-09T13:21:46.141Z,18.51
2018-06-09T13:24:20.414Z,18.21
2018-06-09T13:26:51.648Z,17.46
2018-06-09T13:29:25.827Z,17.44
2018-06-09T13:31:59.308Z,17.13
2018-06-09T13:34:31.901Z,17.01
2018-06-09T13:37:04.280Z,16.16
2018-06-09T13:39:37.289Z,16.04
2018-06-09T13:42:08.830Z,16.14
2018-06-09T13:44:41.128Z,16.28
2018-06-09T13:47:16.393Z,16.19
2018-06-09T13:49:47.159Z,16.55
2018-06-09T13:52:18.806Z,17.03
2018-06-09T13:54:51.550Z,16.94
2018-06-09T13:57:22.539Z,17.98
2018-06-09T13:59:53.363Z,18.39
2018-06-09T14:02:24.769Z,18.52
2018-06-09T14:04:57.102Z,18.50
2018-06-09T14:07:29.672Z,19.23
2018-06-09T14:10:00.432Z,19.27
2018-06-09T14:12:32.164Z,19.21
2018-06-09T14:15:04.169Z,18.80
2018-06-09T14:17:35.623Z,18.25
2018-06-09T14:20:08.984Z,18.36
2018-06-09T14:22:40.335Z,17.50
2018-06-09T14:25:15.011Z,17.71
2018-06-09T14:27:46.669Z,17.92
2018-06-09T14:30:18.104Z,17.94
2018-06-09T14:32:49.988Z,19.37
2018-06-09T14:35:21.575Z,19.81
2018-06-09T14:37:55.823Z,19.78
2018-06-09T14:40:29.894Z,20.88
2018-06-09T14:43:07.501Z,20.99
2018-06-09T14:45:39.560Z,20.77
2018-06-09T14:48:10.907Z,21.12
2018-06-09T14:50:42.127Z,21.75
2018-06-09T14:53:16.549Z,21.33
2018-06-09T14:55:49.224Z,21.32
2018-06-09T14:58:20.757Z,21.60
2018-06-09T15:00:54.623Z,22.19
2018-06-09T15:03:28.936Z,22.34
2018-06-09T15:06:00.512Z,22.08
2018-06-09T15:08:32.224Z,22.66
2018-06-09T15:11:05.996Z,22.24
2018-06-09T15:22:34.920Z,24.85
2018-06-09T15:25:05.952Z,25.69
2018-06-09T15:27:37.281Z,26.62
2018-06-09T15:30:14.252Z,27.54
2018-06-09T15:32:52.435Z,29.15
2018-06-09T15:35:24.835Z,29.85
2018-06-09T15:38:03.863Z,30.36
2018-06-09T15:40:34.618Z,31.74
2018-06-09T15:43:06.476Z,33.52
2018-06-09T15:45:43.564Z,34.95
2018-06-09T15:48:16.372Z,37.13
2018-06-09T15:50:49.216Z,38.41
2018-06-09T15:53:21.952Z,40.09
2018-06-09T15:55:53.419Z,41.40
2018-06-09T15:58:24.552Z,43.82
2018-06-09T16:00:56.188Z,45.72
2018-06-09T16:03:31.473Z,47.59
2018-06-09T16:06:06.064Z,49.19
2018-06-09T16:08:36.941Z,48.97
2018-06-09T16:11:13.279Z,48.94
2018-06-09T16:13:47.234Z,47.93
2018-06-09T16:16:18.429Z,47.38
2018-06-09T16:18:51.363Z,47.85
2018-06-09T16:21:22.085Z,47.45
2018-06-09T16:23:55.421Z,46.48
2018-06-09T16:26:31.600Z,46.77
2018-06-09T16:29:10.658Z,47.07
2018-06-09T16:31:43.380Z,48.33
2018-06-09T16:34:14.850Z,49.97
2018-06-09T16:36:49.355Z,49.02
2018-06-09T16:39:20.580Z,48.59
2018-06-09T16:41:51.420Z,48.75
2018-06-09T16:44:24.318Z,48.73
2018-06-09T16:46:58.674Z,47.01
2018-06-09T16:49:38.460Z,46.24
2018-06-09T16:52:12.693Z,44.63
2018-06-09T16:54:47.657Z,44.89
2018-06-09T16:57:23.291Z,43.81
2018-06-09T16:59:58.618Z,43.43
2018-06-09T17:02:29.300Z,43.09
2018-06-09T17:05:04.662Z,42.12
2018-06-09T17:07:37.248Z,40.92
2018-06-09T17:10:08.872Z,40.42
2018-06-09T17:12:40.125Z,39.83
2018-06-09T17:15:15.259Z,39.26
2018-06-09T17:17:48.654Z,38.99
2018-06-09T17:20:20.080Z,37.88
2018-06-09T17:22:51.538Z,37.72
2018-06-09T17:25:23.856Z,36.83
2018-06-09T17:27:56.649Z,36.63
2018-06-09T17:30:29.385Z,35.84
2018-06-09T17:33:00.205Z,34.80
2018-06-09T17:35:33.012Z,35.38
2018-06-09T17:38:06.324Z,35.61
2018-06-09T17:40:39.144Z,36.10
2018-06-09T17:43:10.635Z,38.13
2018-06-09T17:45:42.700Z,37.96
2018-06-09T17:48:13.401Z,37.64
2018-06-09T17:50:44.036Z,36.29
2018-06-09T17:53:19.436Z,36.22
2018-06-09T17:55:54.353Z,36.56
2018-06-09T17:58:29.956Z,38.25
2018-06-09T18:01:02.481Z,39.12
2018-06-09T18:03:36.288Z,37.55
2018-06-09T18:06:10.449Z,38.77
2018-06-09T18:08:41.970Z,38.54
2018-06-09T18:11:13.312Z,38.32
2018-06-09T18:13:44.086Z,38.21
2018-06-09T18:16:16.305Z,38.06
2018-06-09T18:18:50.568Z,37.16
2018-06-09T18:21:21.210Z,36.38
2018-06-09T18:23:53.511Z,35.45
2018-06-09T18:26:25.830Z,35.84
2018-06-09T18:28:57.371Z,35.60
2018-06-09T18:31:31.534Z,35.84
2018-06-09T18:34:02.559Z,35.73
2018-06-09T18:36:34.440Z,36.34
2018-06-09T18:39:09.540Z,36.07
2018-06-09T18:41:40.428Z,36.56
2018-06-09T18:44:22.423Z,37.68
2018-06-09T18:46:56.606Z,39.01
2018-06-09T18:49:29.117Z,40.05
2018-06-09T18:52:01.833Z,41.90
2018-06-09T18:54:39.100Z,43.67
2018-06-09T18:57:14.453Z,45.69
2018-06-09T19:02:26.596Z,46.96
2018-06-09T19:04:57.924Z,47.20
2018-06-09T19:07:35.005Z,48.32
2018-06-09T19:10:08.116Z,48.70
2018-06-09T19:12:42.324Z,50.10
2018-06-09T19:15:15.964Z,50.74
2018-06-09T19:17:47.758Z,51.92
2018-06-09T19:20:21.756Z,54.07
2018-06-09T19:22:53.446Z,54.51
2018-06-09T19:25:24.867Z,55.88
2018-06-09T19:28:00.525Z,55.63
2018-06-09T19:30:31.222Z,55.72
2018-06-09T19:33:03.755Z,55.04
2018-06-09T19:35:35.385Z,55.14
2018-06-09T19:38:10.476Z,55.64
2018-06-09T19:40:46.379Z,56.25
2018-06-09T19:43:19.288Z,56.18
2018-06-09T19:45:54.977Z,56.81
2018-06-09T19:48:29.882Z,57.15
2018-06-09T19:51:04.300Z,55.76
2018-06-09T19:53:36.796Z,56.49
2018-06-09T19:56:22.779Z,55.85
2018-06-09T19:58:59.840Z,56.38
2018-06-09T20:01:34.067Z,54.47
2018-06-09T20:04:07.932Z,54.32
2018-06-09T20:06:41.303Z,55.58
2018-06-09T20:09:25.576Z,54.76
2018-06-09T20:12:01.383Z,55.18
2018-06-09T20:14:35.564Z,54.50
2018-06-09T20:17:09.452Z,53.79
2018-06-09T20:19:43.409Z,54.34
2018-06-09T20:22:17.838Z,53.62
2018-06-09T20:24:52.654Z,53.35
2018-06-09T20:27:27.396Z,54.56
2018-06-09T20:32:47.412Z,52.41
2018-06-09T20:35:21.494Z,53.46
2018-06-09T20:37:55.982Z,53.18
2018-06-09T20:40:30.416Z,52.49
2018-06-09T20:43:05.330Z,52.36
2018-06-09T20:45:39.849Z,52.37
2018-06-09T20:48:13.012Z,52.54
2018-06-09T20:50:50.404Z,53.13
2018-06-09T20:54:28.479Z,53.22
2018-06-09T20:57:00.879Z,52.26
2018-06-09T20:59:37.677Z,51.74
2018-06-09T21:02:11.336Z,51.40
2018-06-09T21:04:45.808Z,52.40
2018-06-09T21:07:19.237Z,52.27
2018-06-09T21:09:54.381Z,51.11
2018-06-09T21:12:25.130Z,51.62
2018-06-09T21:14:59.800Z,51.91
2018-06-09T21:17:33.384Z,51.88
2018-06-09T21:20:05.873Z,52.12
2018-06-09T21:22:37.626Z,52.13
2018-06-09T21:25:26.289Z,52.84
2018-06-09T21:28:06.113Z,52.00
2018-06-09T21:30:44.196Z,52.65
2018-06-09T21:33:31.369Z,52.48
2018-06-09T21:36:11.232Z,52.97
2018-06-09T21:38:48.073Z,53.61
2018-06-09T21:41:30.034Z,54.23
2018-06-09T21:44:06.068Z,54.12
2018-06-09T21:46:44.684Z,53.64
2018-06-09T21:49:17.067Z,53.53
2018-06-09T21:52:06.472Z,53.79
2018-06-09T21:54:41.301Z,52.88
2018-06-09T21:57:13.177Z,53.00
2018-06-09T22:00:06.345Z,52.89
2018-06-09T22:02:40.440Z,52.89
2018-06-09T22:05:13.350Z,53.33
2018-06-09T22:07:51.236Z,52.38
2018-06-09T22:10:30.189Z,52.61
2018-06-09T22:13:02.732Z,51.55
2018-06-09T22:15:38.089Z,51.63
2018-06-09T22:18:09.724Z,52.48
2018-06-09T22:20:41.700Z,52.72
2018-06-09T22:23:12.416Z,52.57
2018-06-09T22:26:10.767Z,52.80
2018-06-09T22:28:41.461Z,52.17
2018-06-09T22:31:14.684Z,52.26
2018-06-09T22:33:49.180Z,52.61
2018-06-09T22:36:25.644Z,53.37
2018-06-09T22:41:57.161Z,54.50
2018-06-09T22:44:31.860Z,55.68
2018-06-09T22:47:03.960Z,55.51
2018-06-09T22:49:40.591Z,55.89
2018-06-09T22:52:15.931Z,56.04
2018-06-09T22:54:50.720Z,55.90
2018-06-09T22:57:26.493Z,54.93
2018-06-09T23:00:02.065Z,55.70
2018-06-09T23:03:07.369Z,54.48
2018-06-09T23:05:39.704Z,54.59
2018-06-09T23:08:13.495Z,53.92
2018-06-09T23:10:47.396Z,53.95
2018-06-09T23:13:23.856Z,53.26
2018-06-09T23:15:58.566Z,53.99
2018-06-09T23:18:33.968Z,54.26
2018-06-09T23:21:06.229Z,53.84
2018-06-09T23:23:41.671Z,54.58
2018-06-09T23:26:17.509Z,54.99
2018-06-09T23:28:52.570Z,54.45
2018-06-09T23:31:27.531Z,55.29
2018-06-09T23:33:59.629Z,55.08
2018-06-09T23:36:33.281Z,55.34
2018-06-09T23:39:07.682Z,55.82
2018-06-09T23:41:41.834Z,55.91
2018-06-09T23:44:14.755Z,56.07
2018-06-09T23:46:47.283Z,56.25
2018-06-09T23:49:22.337Z,56.61
2018-06-09T23:51:55.369Z,55.68
2018-06-09T23:54:29.505Z,55.33
2018-06-09T23:57:03.585Z,54.91
2018-06-09T23:59:35.693Z,55.07
